TimeMDT,TemperatureF,Dew PointF,Humidity,Sea Level PressureIn,VisibilityMPH,Wind Direction,Wind SpeedMPH,Gust SpeedMPH,PrecipitationIn,Events,Conditions,WindDirDegrees,DateUTC
12:18 AM,32.0,30.2,93,30.22,3.0,East,11.5,-,N/A,Snow,Light Snow,80,2012-10-26 06:18:00
12:38 AM,32.0,30.2,93,30.23,4.0,East,11.5,-,N/A,Snow,Light Snow,100,2012-10-26 06:38:00
12:58 AM,32.0,30.2,93,30.23,4.0,East,9.2,-,N/A,Snow,Light Snow,100,2012-10-26 06:58:00
1:18 AM,32.0,32.0,100,30.23,3.0,East,9.2,-,N/A,Snow,Light Snow,100,2012-10-26 07:18:00
1:38 AM,32.0,32.0,100,30.22,2.5,SE,11.5,-,N/A,Snow,Light Snow,130,2012-10-26 07:38:00
1:58 AM,32.0,32.0,100,30.23,10.0,SE,10.4,-,N/A,,Overcast,130,2012-10-26 07:58:00
2:18 AM,32.0,32.0,100,30.23,10.0,SSE,8.1,-,N/A,,Overcast,160,2012-10-26 08:18:00
2:38 AM,32.0,32.0,100,30.24,10.0,West,13.8,-,N/A,,Overcast,270,2012-10-26 08:38:00
2:58 AM,32.0,30.2,93,30.25,10.0,WNW,11.5,-,N/A,,Overcast,290,2012-10-26 08:58:00
3:18 AM,30.2,30.2,100,30.26,10.0,NW,15.0,-,N/A,,Overcast,310,2012-10-26 09:18:00
3:38 AM,30.2,28.4,93,30.27,7.0,NNW,12.7,-,N/A,,Overcast,330,2012-10-26 09:38:00
3:58 AM,30.2,28.4,93,30.27,5.0,NNW,11.5,-,N/A,,Overcast,330,2012-10-26 09:58:00
4:18 AM,30.2,28.4,93,30.29,5.0,NNW,15.0,-,N/A,,Overcast,340,2012-10-26 10:18:00
4:38 AM,28.4,28.4,100,30.30,5.0,NNW,17.3,-,N/A,Snow,Light Snow,340,2012-10-26 10:38:00
4:58 AM,28.4,28.4,100,30.31,3.0,North,17.3,-,N/A,Snow,Light Snow,350,2012-10-26 10:58:00
5:18 AM,28.4,28.4,100,30.33,4.0,North,12.7,-,N/A,Snow,Light Snow,350,2012-10-26 11:18:00
5:38 AM,28.4,28.4,100,30.34,4.0,North,13.8,-,N/A,Snow,Light Snow,10,2012-10-26 11:38:00
5:58 AM,28.4,28.4,100,30.35,3.0,North,15.0,-,N/A,,Overcast,10,2012-10-26 11:58:00
6:18 AM,28.4,28.4,100,30.37,4.0,North,11.5,-,N/A,,Overcast,10,2012-10-26 12:18:00
6:56 AM,28.4,28.4,100,30.38,3.0,North,10.4,-,N/A,,Overcast,360,2012-10-26 12:56:00
7:50 AM,28.4,26.6,93,30.39,0.2,NNE,6.9,-,N/A,Fog,Light Freezing Fog,20,2012-10-26 13:50:00
9:48 AM,28.4,26.6,93,30.43,4.0,East,3.5,-,N/A,,Overcast,90,2012-10-26 15:48:00
10:48 AM,30.2,28.4,93,30.43,4.0,SSE,3.5,-,N/A,,Overcast,160,2012-10-26 16:48:00
11:31 AM,30.2,26.6,86,30.43,4.0,SSE,3.5,-,N/A,,Scattered Clouds,150,2012-10-26 17:31:00
11:47 AM,32.0,26.6,80,30.42,4.0,South,3.5,-,N/A,,Mostly Cloudy,170,2012-10-26 17:47:00
12:52 PM,33.8,26.6,75,30.38,7.0,SE,5.8,-,N/A,,Scattered Clouds,140,2012-10-26 18:52:00
1:47 PM,35.6,26.6,70,30.35,10.0,SE,5.8,-,N/A,,Scattered Clouds,130,2012-10-26 19:47:00
2:51 PM,37.4,28.4,70,30.31,10.0,SE,9.2,-,N/A,,Partly Cloudy,130,2012-10-26 20:51:00
3:54 PM,39.2,26.6,61,30.29,10.0,ESE,11.5,-,N/A,,Partly Cloudy,110,2012-10-26 21:54:00
4:47 PM,39.2,26.6,61,30.27,10.0,SE,9.2,-,N/A,,Partly Cloudy,130,2012-10-26 22:47:00
5:47 PM,37.4,28.4,70,30.26,10.0,ESE,6.9,-,N/A,,Partly Cloudy,120,2012-10-26 23:47:00
6:47 PM,32.0,28.4,87,30.26,10.0,SE,5.8,-,N/A,,Partly Cloudy,130,2012-10-27 00:47:00
7:55 PM,30.2,26.6,86,30.24,10.0,ESE,6.9,-,N/A,,Clear,120,2012-10-27 01:55:00
8:50 PM,30.2,26.6,86,30.21,10.0,SSE,9.2,-,N/A,,Clear,150,2012-10-27 02:50:00
9:18 PM,32.0,30.2,93,30.20,10.0,South,9.2,-,N/A,,Clear,180,2012-10-27 03:18:00
9:38 PM,32.0,30.2,93,30.20,10.0,South,10.4,-,N/A,,Clear,180,2012-10-27 03:38:00
9:58 PM,33.8,30.2,87,30.19,10.0,South,10.4,-,N/A,,Clear,180,2012-10-27 03:58:00
10:17 PM,33.8,30.2,87,30.18,10.0,South,9.2,-,N/A,,Clear,180,2012-10-27 04:17:00
10:38 PM,33.8,30.2,87,30.18,10.0,South,6.9,-,N/A,,Clear,180,2012-10-27 04:38:00
10:58 PM,33.8,30.2,87,30.17,10.0,South,4.6,-,N/A,,Clear,180,2012-10-27 04:58:00
11:18 PM,33.8,30.2,87,30.16,10.0,SSW,8.1,-,N/A,,Clear,200,2012-10-27 05:18:00
11:38 PM,33.8,30.2,87,30.15,10.0,SSW,6.9,-,N/A,,Scattered Clouds,200,2012-10-27 05:38:00
11:58 PM,33.8,30.2,87,30.14,10.0,SSW,11.5,-,N/A,,Scattered Clouds,200,2012-10-27 05:58:00